sensor_id;sensor_type;location;lat;lon;timestamp;P1;durP1;ratioP1;P2;durP2;ratioP2
76228;SDS011;65021;53.174;18.160;2023-03-08T00:01:56;10.80;;;4.70;;
76228;SDS011;65021;53.174;18.160;2023-03-08T00:04:22;8.40;;;3.40;;
76228;SDS011;65021;53.174;18.160;2023-03-08T00:06:49;10.70;;;5.40;;
76228;SDS011;65021;53.174;18.160;2023-03-08T00:09:15;11.30;;;4.50;;
76228;SDS011;65021;53.174;18.160;2023-03-08T00:11:42;7.50;;;3.30;;
76228;SDS011;65021;53.174;18.160;2023-03-08T00:14:08;13.20;;;4.40;;
76228;SDS011;65021;53.174;18.160;2023-03-08T00:16:35;5.30;;;2.30;;
76228;SDS011;65021;53.174;18.160;2023-03-08T00:19:02;8.30;;;3.20;;
76228;SDS011;65021;53.174;18.160;2023-03-08T00:21:28;15.70;;;5.50;;
76228;SDS011;65021;53.174;18.160;2023-03-08T00:23:55;7.80;;;2.50;;
76228;SDS011;65021;53.174;18.160;2023-03-08T00:26:23;8.70;;;3.70;;
76228;SDS011;65021;53.174;18.160;2023-03-08T00:28:49;13.00;;;6.00;;
76228;SDS011;65021;53.174;18.160;2023-03-08T00:31:16;12.50;;;5.30;;
76228;SDS011;65021;53.174;18.160;2023-03-08T00:33:43;10.20;;;4.20;;
76228;SDS011;65021;53.174;18.160;2023-03-08T00:36:18;12.50;;;5.40;;
76228;SDS011;65021;53.174;18.160;2023-03-08T00:38:46;13.20;;;6.10;;
76228;SDS011;65021;53.174;18.160;2023-03-08T00:41:15;12.10;;;4.80;;
76228;SDS011;65021;53.174;18.160;2023-03-08T00:43:42;10.20;;;5.50;;
76228;SDS011;65021;53.174;18.160;2023-03-08T00:46:09;14.50;;;4.80;;
76228;SDS011;65021;53.174;18.160;2023-03-08T00:48:36;9.30;;;4.10;;
76228;SDS011;65021;53.174;18.160;2023-03-08T00:51:03;11.60;;;5.20;;
76228;SDS011;65021;53.174;18.160;2023-03-08T00:53:30;10.80;;;4.70;;
76228;SDS011;65021;53.174;18.160;2023-03-08T00:55:57;11.40;;;5.20;;
76228;SDS011;65021;53.174;18.160;2023-03-08T00:58:26;15.60;;;6.00;;
76228;SDS011;65021;53.174;18.160;2023-03-08T01:00:55;10.30;;;4.20;;
76228;SDS011;65021;53.174;18.160;2023-03-08T01:03:23;10.90;;;5.10;;
76228;SDS011;65021;53.174;18.160;2023-03-08T01:05:51;11.20;;;5.80;;
76228;SDS011;65021;53.174;18.160;2023-03-08T01:08:20;10.90;;;4.80;;
76228;SDS011;65021;53.174;18.160;2023-03-08T01:10:51;11.10;;;4.80;;
76228;SDS011;65021;53.174;18.160;2023-03-08T01:13:20;9.40;;;4.00;;
76228;SDS011;65021;53.174;18.160;2023-03-08T01:15:46;5.90;;;2.60;;
76228;SDS011;65021;53.174;18.160;2023-03-08T01:18:13;14.20;;;3.60;;
76228;SDS011;65021;53.174;18.160;2023-03-08T01:20:40;9.70;;;4.60;;
76228;SDS011;65021;53.174;18.160;2023-03-08T01:23:07;9.20;;;4.20;;
76228;SDS011;65021;53.174;18.160;2023-03-08T01:25:35;8.80;;;3.60;;
76228;SDS011;65021;53.174;18.160;2023-03-08T01:28:01;10.90;;;4.50;;
76228;SDS011;65021;53.174;18.160;2023-03-08T01:30:28;11.20;;;5.20;;
76228;SDS011;65021;53.174;18.160;2023-03-08T01:32:55;10.90;;;4.00;;
76228;SDS011;65021;53.174;18.160;2023-03-08T01:35:21;8.60;;;3.80;;
76228;SDS011;65021;53.174;18.160;2023-03-08T01:37:51;7.90;;;4.00;;
76228;SDS011;65021;53.174;18.160;2023-03-08T01:40:18;10.90;;;4.60;;
76228;SDS011;65021;53.174;18.160;2023-03-08T01:42:46;7.80;;;4.40;;
76228;SDS011;65021;53.174;18.160;2023-03-08T01:48:17;9.60;;;4.30;;
76228;SDS011;65021;53.174;18.160;2023-03-08T01:50:45;11.90;;;4.60;;
76228;SDS011;65021;53.174;18.160;2023-03-08T01:53:12;12.00;;;4.40;;
76228;SDS011;65021;53.174;18.160;2023-03-08T01:55:39;7.40;;;4.30;;
76228;SDS011;65021;53.174;18.160;2023-03-08T01:58:07;9.80;;;3.60;;
76228;SDS011;65021;53.174;18.160;2023-03-08T02:00:34;6.70;;;2.90;;
76228;SDS011;65021;53.174;18.160;2023-03-08T02:03:05;10.50;;;4.70;;
76228;SDS011;65021;53.174;18.160;2023-03-08T02:05:35;10.50;;;3.30;;
76228;SDS011;65021;53.174;18.160;2023-03-08T02:08:04;11.60;;;4.30;;
76228;SDS011;65021;53.174;18.160;2023-03-08T02:10:31;6.30;;;2.80;;
76228;SDS011;65021;53.174;18.160;2023-03-08T02:12:58;8.40;;;3.30;;
76228;SDS011;65021;53.174;18.160;2023-03-08T02:15:26;10.90;;;4.10;;
76228;SDS011;65021;53.174;18.160;2023-03-08T02:17:52;6.20;;;2.90;;
76228;SDS011;65021;53.174;18.160;2023-03-08T02:20:30;8.40;;;3.30;;
76228;SDS011;65021;53.174;18.160;2023-03-08T02:25:58;11.70;;;4.30;;
76228;SDS011;65021;53.174;18.160;2023-03-08T02:28:26;11.30;;;3.80;;
76228;SDS011;65021;53.174;18.160;2023-03-08T02:30:54;7.20;;;3.30;;
76228;SDS011;65021;53.174;18.160;2023-03-08T02:33:21;6.30;;;3.20;;
76228;SDS011;65021;53.174;18.160;2023-03-08T02:35:49;8.30;;;3.50;;
76228;SDS011;65021;53.174;18.160;2023-03-08T02:38:16;7.30;;;2.30;;
76228;SDS011;65021;53.174;18.160;2023-03-08T02:40:44;5.70;;;2.20;;
76228;SDS011;65021;53.174;18.160;2023-03-08T02:43:11;11.80;;;3.20;;
76228;SDS011;65021;53.174;18.160;2023-03-08T02:45:38;4.80;;;1.90;;
76228;SDS011;65021;53.174;18.160;2023-03-08T02:48:05;6.90;;;2.50;;
76228;SDS011;65021;53.174;18.160;2023-03-08T02:50:32;4.10;;;1.50;;
76228;SDS011;65021;53.174;18.160;2023-03-08T02:52:58;5.10;;;2.30;;
76228;SDS011;65021;53.174;18.160;2023-03-08T02:55:25;8.60;;;3.00;;
76228;SDS011;65021;53.174;18.160;2023-03-08T02:57:52;7.70;;;2.90;;
76228;SDS011;65021;53.174;18.160;2023-03-08T03:00:19;6.10;;;2.20;;
76228;SDS011;65021;53.174;18.160;2023-03-08T03:02:46;6.50;;;2.40;;
76228;SDS011;65021;53.174;18.160;2023-03-08T03:05:12;8.50;;;2.10;;
76228;SDS011;65021;53.174;18.160;2023-03-08T03:07:40;7.20;;;2.00;;
76228;SDS011;65021;53.174;18.160;2023-03-08T03:10:08;11.80;;;2.60;;
76228;SDS011;65021;53.174;18.160;2023-03-08T03:12:37;5.70;;;2.00;;
76228;SDS011;65021;53.174;18.160;2023-03-08T03:15:05;5.60;;;2.20;;
76228;SDS011;65021;53.174;18.160;2023-03-08T03:17:34;6.10;;;2.30;;
76228;SDS011;65021;53.174;18.160;2023-03-08T03:20:03;8.80;;;2.00;;
76228;SDS011;65021;53.174;18.160;2023-03-08T03:22:34;9.80;;;2.60;;
76228;SDS011;65021;53.174;18.160;2023-03-08T03:25:01;5.70;;;1.70;;
76228;SDS011;65021;53.174;18.160;2023-03-08T03:27:28;7.20;;;2.10;;
76228;SDS011;65021;53.174;18.160;2023-03-08T03:29:55;6.70;;;1.30;;
76228;SDS011;65021;53.174;18.160;2023-03-08T03:32:21;8.70;;;2.40;;
76228;SDS011;65021;53.174;18.160;2023-03-08T03:34:48;8.50;;;2.00;;
76228;SDS011;65021;53.174;18.160;2023-03-08T03:37:15;7.00;;;1.90;;
76228;SDS011;65021;53.174;18.160;2023-03-08T03:39:41;5.60;;;2.40;;
76228;SDS011;65021;53.174;18.160;2023-03-08T03:42:08;5.10;;;1.80;;
76228;SDS011;65021;53.174;18.160;2023-03-08T03:44:35;5.40;;;2.00;;
76228;SDS011;65021;53.174;18.160;2023-03-08T03:47:02;4.80;;;1.60;;
76228;SDS011;65021;53.174;18.160;2023-03-08T03:49:28;6.70;;;2.00;;
76228;SDS011;65021;53.174;18.160;2023-03-08T03:51:55;5.90;;;1.90;;
76228;SDS011;65021;53.174;18.160;2023-03-08T03:54:21;4.00;;;1.40;;
76228;SDS011;65021;53.174;18.160;2023-03-08T03:56:48;3.80;;;1.00;;
76228;SDS011;65021;53.174;18.160;2023-03-08T03:59:15;4.70;;;1.70;;
76228;SDS011;65021;53.174;18.160;2023-03-08T04:01:41;3.20;;;1.30;;
76228;SDS011;65021;53.174;18.160;2023-03-08T04:04:09;6.40;;;1.90;;
76228;SDS011;65021;53.174;18.160;2023-03-08T04:06:36;5.40;;;2.00;;
76228;SDS011;65021;53.174;18.160;2023-03-08T04:09:03;5.90;;;2.00;;
76228;SDS011;65021;53.174;18.160;2023-03-08T04:11:34;3.50;;;0.70;;
76228;SDS011;65021;53.174;18.160;2023-03-08T04:14:02;7.40;;;1.90;;
76228;SDS011;65021;53.174;18.160;2023-03-08T04:16:33;2.70;;;0.90;;
76228;SDS011;65021;53.174;18.160;2023-03-08T04:19:05;4.90;;;1.60;;
76228;SDS011;65021;53.174;18.160;2023-03-08T04:21:35;9.10;;;1.90;;
76228;SDS011;65021;53.174;18.160;2023-03-08T04:24:02;6.50;;;1.80;;
76228;SDS011;65021;53.174;18.160;2023-03-08T04:26:29;2.40;;;1.00;;
76228;SDS011;65021;53.174;18.160;2023-03-08T04:28:55;4.10;;;1.60;;
76228;SDS011;65021;53.174;18.160;2023-03-08T04:31:23;6.20;;;1.20;;
76228;SDS011;65021;53.174;18.160;2023-03-08T04:33:51;6.20;;;1.40;;
76228;SDS011;65021;53.174;18.160;2023-03-08T04:36:19;7.50;;;1.90;;
76228;SDS011;65021;53.174;18.160;2023-03-08T04:38:46;5.20;;;1.30;;
76228;SDS011;65021;53.174;18.160;2023-03-08T04:41:13;4.00;;;1.10;;
76228;SDS011;65021;53.174;18.160;2023-03-08T04:46:10;3.50;;;1.20;;
76228;SDS011;65021;53.174;18.160;2023-03-08T04:48:37;4.10;;;1.50;;
76228;SDS011;65021;53.174;18.160;2023-03-08T04:51:05;4.30;;;1.40;;
76228;SDS011;65021;53.174;18.160;2023-03-08T04:53:32;4.80;;;1.20;;
76228;SDS011;65021;53.174;18.160;2023-03-08T04:55:59;5.90;;;1.40;;
76228;SDS011;65021;53.174;18.160;2023-03-08T04:58:26;4.90;;;1.30;;
76228;SDS011;65021;53.174;18.160;2023-03-08T05:00:53;3.00;;;0.70;;
76228;SDS011;65021;53.174;18.160;2023-03-08T05:03:20;8.60;;;2.00;;
76228;SDS011;65021;53.174;18.160;2023-03-08T05:05:48;5.30;;;1.50;;
76228;SDS011;65021;53.174;18.160;2023-03-08T05:08:16;3.90;;;1.50;;
76228;SDS011;65021;53.174;18.160;2023-03-08T05:10:47;6.00;;;1.30;;
76228;SDS011;65021;53.174;18.160;2023-03-08T05:13:24;9.20;;;1.80;;
76228;SDS011;65021;53.174;18.160;2023-03-08T05:15:52;3.50;;;1.00;;
76228;SDS011;65021;53.174;18.160;2023-03-08T05:18:19;7.40;;;1.50;;
76228;SDS011;65021;53.174;18.160;2023-03-08T05:20:59;5.10;;;1.50;;
76228;SDS011;65021;53.174;18.160;2023-03-08T05:23:27;2.90;;;1.00;;
76228;SDS011;65021;53.174;18.160;2023-03-08T05:25:55;3.60;;;0.90;;
76228;SDS011;65021;53.174;18.160;2023-03-08T05:33:41;4.80;;;1.20;;
76228;SDS011;65021;53.174;18.160;2023-03-08T05:36:11;2.60;;;1.00;;
76228;SDS011;65021;53.174;18.160;2023-03-08T05:38:39;3.80;;;0.90;;
76228;SDS011;65021;53.174;18.160;2023-03-08T05:41:07;4.90;;;1.30;;
76228;SDS011;65021;53.174;18.160;2023-03-08T05:43:36;5.80;;;1.30;;
76228;SDS011;65021;53.174;18.160;2023-03-08T05:46:04;6.30;;;1.20;;
76228;SDS011;65021;53.174;18.160;2023-03-08T05:48:36;7.70;;;1.30;;
76228;SDS011;65021;53.174;18.160;2023-03-08T05:51:06;7.20;;;1.70;;
76228;SDS011;65021;53.174;18.160;2023-03-08T05:53:38;3.90;;;1.60;;
76228;SDS011;65021;53.174;18.160;2023-03-08T05:56:06;3.10;;;1.00;;
76228;SDS011;65021;53.174;18.160;2023-03-08T05:58:37;3.70;;;1.00;;
76228;SDS011;65021;53.174;18.160;2023-03-08T06:01:08;6.10;;;1.80;;
76228;SDS011;65021;53.174;18.160;2023-03-08T06:03:47;3.30;;;1.10;;
76228;SDS011;65021;53.174;18.160;2023-03-08T06:06:15;6.30;;;1.40;;
76228;SDS011;65021;53.174;18.160;2023-03-08T06:08:43;4.30;;;1.00;;
76228;SDS011;65021;53.174;18.160;2023-03-08T06:11:10;5.50;;;2.00;;
76228;SDS011;65021;53.174;18.160;2023-03-08T06:13:37;5.20;;;1.20;;
76228;SDS011;65021;53.174;18.160;2023-03-08T06:16:04;5.40;;;1.40;;
76228;SDS011;65021;53.174;18.160;2023-03-08T06:18:31;6.50;;;1.20;;
76228;SDS011;65021;53.174;18.160;2023-03-08T06:23:39;2.70;;;0.90;;
76228;SDS011;65021;53.174;18.160;2023-03-08T06:26:07;5.20;;;1.70;;
76228;SDS011;65021;53.174;18.160;2023-03-08T06:28:34;3.20;;;1.00;;
76228;SDS011;65021;53.174;18.160;2023-03-08T06:31:02;7.10;;;1.60;;
76228;SDS011;65021;53.174;18.160;2023-03-08T06:33:29;2.80;;;0.60;;
76228;SDS011;65021;53.174;18.160;2023-03-08T06:35:58;4.30;;;1.40;;
76228;SDS011;65021;53.174;18.160;2023-03-08T06:38:27;3.00;;;0.90;;
76228;SDS011;65021;53.174;18.160;2023-03-08T06:40:55;5.10;;;2.00;;
76228;SDS011;65021;53.174;18.160;2023-03-08T06:43:23;3.70;;;1.40;;
76228;SDS011;65021;53.174;18.160;2023-03-08T06:45:50;4.20;;;1.50;;
76228;SDS011;65021;53.174;18.160;2023-03-08T06:48:17;3.10;;;1.30;;
76228;SDS011;65021;53.174;18.160;2023-03-08T06:50:43;4.10;;;1.40;;
76228;SDS011;65021;53.174;18.160;2023-03-08T06:53:10;5.10;;;1.60;;
76228;SDS011;65021;53.174;18.160;2023-03-08T06:55:38;3.20;;;1.10;;
76228;SDS011;65021;53.174;18.160;2023-03-08T06:58:06;6.80;;;2.00;;
76228;SDS011;65021;53.174;18.160;2023-03-08T07:00:33;4.40;;;1.50;;
76228;SDS011;65021;53.174;18.160;2023-03-08T07:03:00;4.10;;;1.20;;
76228;SDS011;65021;53.174;18.160;2023-03-08T07:05:27;6.60;;;1.80;;
76228;SDS011;65021;53.174;18.160;2023-03-08T07:07:53;5.50;;;1.60;;
76228;SDS011;65021;53.174;18.160;2023-03-08T07:10:20;6.90;;;2.20;;
76228;SDS011;65021;53.174;18.160;2023-03-08T07:12:48;5.20;;;1.90;;
76228;SDS011;65021;53.174;18.160;2023-03-08T07:15:18;5.50;;;1.90;;
76228;SDS011;65021;53.174;18.160;2023-03-08T07:17:47;6.20;;;1.90;;
76228;SDS011;65021;53.174;18.160;2023-03-08T07:22:44;8.40;;;2.60;;
76228;SDS011;65021;53.174;18.160;2023-03-08T07:25:11;9.00;;;3.00;;
76228;SDS011;65021;53.174;18.160;2023-03-08T07:27:39;4.80;;;1.30;;
76228;SDS011;65021;53.174;18.160;2023-03-08T07:30:06;6.90;;;2.90;;
76228;SDS011;65021;53.174;18.160;2023-03-08T07:32:37;4.50;;;1.80;;
76228;SDS011;65021;53.174;18.160;2023-03-08T07:35:06;5.60;;;2.70;;
76228;SDS011;65021;53.174;18.160;2023-03-08T07:37:35;8.00;;;2.60;;
76228;SDS011;65021;53.174;18.160;2023-03-08T07:40:02;6.10;;;2.40;;
76228;SDS011;65021;53.174;18.160;2023-03-08T07:42:30;8.20;;;2.90;;
76228;SDS011;65021;53.174;18.160;2023-03-08T07:44:57;4.30;;;1.80;;
76228;SDS011;65021;53.174;18.160;2023-03-08T07:47:23;9.00;;;2.80;;
76228;SDS011;65021;53.174;18.160;2023-03-08T07:49:50;5.80;;;2.30;;
76228;SDS011;65021;53.174;18.160;2023-03-08T07:52:16;9.10;;;3.60;;
76228;SDS011;65021;53.174;18.160;2023-03-08T07:54:43;6.70;;;2.40;;
76228;SDS011;65021;53.174;18.160;2023-03-08T07:57:13;5.30;;;2.10;;
76228;SDS011;65021;53.174;18.160;2023-03-08T07:59:41;6.40;;;2.60;;
76228;SDS011;65021;53.174;18.160;2023-03-08T08:02:10;6.90;;;2.30;;
76228;SDS011;65021;53.174;18.160;2023-03-08T08:04:38;6.10;;;1.50;;
76228;SDS011;65021;53.174;18.160;2023-03-08T08:07:06;6.40;;;2.00;;
76228;SDS011;65021;53.174;18.160;2023-03-08T08:09:37;5.70;;;2.30;;
76228;SDS011;65021;53.174;18.160;2023-03-08T08:12:04;7.30;;;2.30;;
76228;SDS011;65021;53.174;18.160;2023-03-08T08:14:31;6.70;;;2.70;;
76228;SDS011;65021;53.174;18.160;2023-03-08T08:16:58;6.50;;;2.00;;
76228;SDS011;65021;53.174;18.160;2023-03-08T08:19:25;4.50;;;1.60;;
76228;SDS011;65021;53.174;18.160;2023-03-08T08:21:52;7.60;;;2.10;;
76228;SDS011;65021;53.174;18.160;2023-03-08T08:24:18;5.40;;;1.80;;
76228;SDS011;65021;53.174;18.160;2023-03-08T08:26:45;4.50;;;2.00;;
76228;SDS011;65021;53.174;18.160;2023-03-08T08:29:11;5.70;;;1.90;;
76228;SDS011;65021;53.174;18.160;2023-03-08T08:31:38;3.90;;;1.60;;
76228;SDS011;65021;53.174;18.160;2023-03-08T08:34:05;4.40;;;1.60;;
76228;SDS011;65021;53.174;18.160;2023-03-08T08:36:32;5.90;;;2.00;;
76228;SDS011;65021;53.174;18.160;2023-03-08T08:38:58;5.70;;;1.40;;
76228;SDS011;65021;53.174;18.160;2023-03-08T08:41:25;4.80;;;1.90;;
76228;SDS011;65021;53.174;18.160;2023-03-08T08:43:53;6.20;;;1.80;;
76228;SDS011;65021;53.174;18.160;2023-03-08T08:46:24;8.10;;;2.00;;
76228;SDS011;65021;53.174;18.160;2023-03-08T08:48:53;5.70;;;1.90;;
76228;SDS011;65021;53.174;18.160;2023-03-08T08:51:20;4.20;;;1.50;;
76228;SDS011;65021;53.174;18.160;2023-03-08T08:53:47;4.00;;;1.50;;
76228;SDS011;65021;53.174;18.160;2023-03-08T08:56:19;4.30;;;1.50;;
76228;SDS011;65021;53.174;18.160;2023-03-08T08:58:46;6.60;;;1.60;;
76228;SDS011;65021;53.174;18.160;2023-03-08T09:03:44;5.90;;;1.60;;
76228;SDS011;65021;53.174;18.160;2023-03-08T09:06:12;5.40;;;1.90;;
76228;SDS011;65021;53.174;18.160;2023-03-08T09:08:40;5.00;;;1.50;;
76228;SDS011;65021;53.174;18.160;2023-03-08T09:11:08;4.10;;;1.20;;
76228;SDS011;65021;53.174;18.160;2023-03-08T09:13:36;3.30;;;1.20;;
76228;SDS011;65021;53.174;18.160;2023-03-08T09:16:41;6.30;;;1.60;;
76228;SDS011;65021;53.174;18.160;2023-03-08T09:19:01;4.00;;;1.00;;
76228;SDS011;65021;53.174;18.160;2023-03-08T09:21:29;9.30;;;1.50;;
76228;SDS011;65021;53.174;18.160;2023-03-08T09:24:01;2.80;;;0.90;;
76228;SDS011;65021;53.174;18.160;2023-03-08T09:26:29;3.60;;;1.30;;
76228;SDS011;65021;53.174;18.160;2023-03-08T09:28:57;4.80;;;2.20;;
76228;SDS011;65021;53.174;18.160;2023-03-08T09:31:30;4.80;;;1.40;;
76228;SDS011;65021;53.174;18.160;2023-03-08T09:33:58;3.70;;;1.30;;
76228;SDS011;65021;53.174;18.160;2023-03-08T09:36:25;5.60;;;1.20;;
76228;SDS011;65021;53.174;18.160;2023-03-08T09:38:55;5.60;;;1.50;;
76228;SDS011;65021;53.174;18.160;2023-03-08T09:46:48;5.60;;;1.70;;
76228;SDS011;65021;53.174;18.160;2023-03-08T09:49:27;3.10;;;1.00;;
76228;SDS011;65021;53.174;18.160;2023-03-08T09:52:00;4.70;;;1.80;;
76228;SDS011;65021;53.174;18.160;2023-03-08T09:54:33;4.90;;;1.50;;
76228;SDS011;65021;53.174;18.160;2023-03-08T09:57:04;5.20;;;1.80;;
76228;SDS011;65021;53.174;18.160;2023-03-08T10:08:00;3.70;;;1.90;;
76228;SDS011;65021;53.174;18.160;2023-03-08T10:13:30;6.00;;;1.50;;
76228;SDS011;65021;53.174;18.160;2023-03-08T10:18:59;4.40;;;1.80;;
76228;SDS011;65021;53.174;18.160;2023-03-08T10:21:32;7.50;;;2.40;;
76228;SDS011;65021;53.174;18.160;2023-03-08T10:26:52;6.80;;;2.30;;
76228;SDS011;65021;53.174;18.160;2023-03-08T10:29:20;6.10;;;1.70;;
76228;SDS011;65021;53.174;18.160;2023-03-08T10:31:46;5.10;;;1.40;;
76228;SDS011;65021;53.174;18.160;2023-03-08T10:34:17;6.10;;;2.10;;
76228;SDS011;65021;53.174;18.160;2023-03-08T10:36:47;4.70;;;1.80;;
76228;SDS011;65021;53.174;18.160;2023-03-08T10:39:16;4.00;;;1.30;;
76228;SDS011;65021;53.174;18.160;2023-03-08T10:41:45;4.50;;;1.60;;
76228;SDS011;65021;53.174;18.160;2023-03-08T10:44:31;6.60;;;2.10;;
76228;SDS011;65021;53.174;18.160;2023-03-08T10:49:49;6.80;;;2.00;;
76228;SDS011;65021;53.174;18.160;2023-03-08T10:52:31;3.10;;;0.90;;
76228;SDS011;65021;53.174;18.160;2023-03-08T10:55:03;6.90;;;1.70;;
76228;SDS011;65021;53.174;18.160;2023-03-08T10:57:29;6.00;;;1.60;;
76228;SDS011;65021;53.174;18.160;2023-03-08T11:00:03;3.30;;;1.40;;
76228;SDS011;65021;53.174;18.160;2023-03-08T11:02:48;3.30;;;1.20;;
76228;SDS011;65021;53.174;18.160;2023-03-08T11:05:22;3.50;;;0.90;;
76228;SDS011;65021;53.174;18.160;2023-03-08T11:07:57;4.60;;;1.20;;
76228;SDS011;65021;53.174;18.160;2023-03-08T11:10:26;3.60;;;0.90;;
76228;SDS011;65021;53.174;18.160;2023-03-08T11:15:58;3.50;;;1.30;;
76228;SDS011;65021;53.174;18.160;2023-03-08T11:26:51;2.70;;;0.80;;
76228;SDS011;65021;53.174;18.160;2023-03-08T11:34:52;2.80;;;1.00;;
76228;SDS011;65021;53.174;18.160;2023-03-08T11:37:30;3.90;;;1.40;;
76228;SDS011;65021;53.174;18.160;2023-03-08T11:40:04;3.20;;;1.00;;
76228;SDS011;65021;53.174;18.160;2023-03-08T11:45:44;3.50;;;1.30;;
76228;SDS011;65021;53.174;18.160;2023-03-08T11:50:59;5.70;;;1.50;;
76228;SDS011;65021;53.174;18.160;2023-03-08T11:53:43;6.00;;;1.60;;
76228;SDS011;65021;53.174;18.160;2023-03-08T12:02:35;4.90;;;1.70;;
76228;SDS011;65021;53.174;18.160;2023-03-08T12:07:53;5.50;;;1.80;;
76228;SDS011;65021;53.174;18.160;2023-03-08T12:10:28;4.70;;;1.90;;
76228;SDS011;65021;53.174;18.160;2023-03-08T12:13:03;6.60;;;2.40;;
76228;SDS011;65021;53.174;18.160;2023-03-08T12:15:38;5.40;;;2.30;;
76228;SDS011;65021;53.174;18.160;2023-03-08T12:18:27;6.40;;;2.80;;
76228;SDS011;65021;53.174;18.160;2023-03-08T12:21:17;3.80;;;1.30;;
76228;SDS011;65021;53.174;18.160;2023-03-08T12:26:26;7.50;;;3.20;;
76228;SDS011;65021;53.174;18.160;2023-03-08T12:32:08;4.60;;;1.50;;
76228;SDS011;65021;53.174;18.160;2023-03-08T12:37:25;6.10;;;1.90;;
76228;SDS011;65021;53.174;18.160;2023-03-08T12:39:59;6.50;;;2.00;;
76228;SDS011;65021;53.174;18.160;2023-03-08T12:42:36;5.10;;;2.00;;
76228;SDS011;65021;53.174;18.160;2023-03-08T12:48:06;3.50;;;1.30;;
76228;SDS011;65021;53.174;18.160;2023-03-08T12:58:56;7.30;;;2.50;;
76228;SDS011;65021;53.174;18.160;2023-03-08T13:01:38;4.10;;;2.10;;
76228;SDS011;65021;53.174;18.160;2023-03-08T13:10:05;7.10;;;2.50;;
76228;SDS011;65021;53.174;18.160;2023-03-08T13:15:29;4.70;;;2.00;;
76228;SDS011;65021;53.174;18.160;2023-03-08T13:18:00;6.40;;;2.20;;
76228;SDS011;65021;53.174;18.160;2023-03-08T13:28:26;5.30;;;2.00;;
76228;SDS011;65021;53.174;18.160;2023-03-08T13:31:02;6.20;;;2.30;;
76228;SDS011;65021;53.174;18.160;2023-03-08T13:33:39;5.00;;;2.50;;
76228;SDS011;65021;53.174;18.160;2023-03-08T13:38:55;8.50;;;2.00;;
76228;SDS011;65021;53.174;18.160;2023-03-08T13:43:59;7.40;;;2.40;;
76228;SDS011;65021;53.174;18.160;2023-03-08T13:46:30;8.10;;;2.40;;
76228;SDS011;65021;53.174;18.160;2023-03-08T13:48:56;9.10;;;2.30;;
76228;SDS011;65021;53.174;18.160;2023-03-08T13:51:24;8.20;;;2.40;;
76228;SDS011;65021;53.174;18.160;2023-03-08T13:53:53;5.70;;;2.60;;
76228;SDS011;65021;53.174;18.160;2023-03-08T13:56:25;6.30;;;2.30;;
76228;SDS011;65021;53.174;18.160;2023-03-08T13:58:54;7.00;;;2.70;;
76228;SDS011;65021;53.174;18.160;2023-03-08T14:03:51;3.80;;;1.40;;
76228;SDS011;65021;53.174;18.160;2023-03-08T14:06:21;3.60;;;1.30;;
76228;SDS011;65021;53.174;18.160;2023-03-08T14:08:48;7.60;;;2.00;;
76228;SDS011;65021;53.174;18.160;2023-03-08T14:11:24;4.30;;;1.70;;
76228;SDS011;65021;53.174;18.160;2023-03-08T14:13:56;4.20;;;1.60;;
76228;SDS011;65021;53.174;18.160;2023-03-08T14:16:37;4.50;;;1.40;;
76228;SDS011;65021;53.174;18.160;2023-03-08T14:21:46;4.90;;;2.00;;
76228;SDS011;65021;53.174;18.160;2023-03-08T14:24:18;5.30;;;1.80;;
76228;SDS011;65021;53.174;18.160;2023-03-08T14:29:23;1.60;;;0.90;;
76228;SDS011;65021;53.174;18.160;2023-03-08T14:31:52;3.90;;;1.60;;
76228;SDS011;65021;53.174;18.160;2023-03-08T14:34:41;2.90;;;1.10;;
76228;SDS011;65021;53.174;18.160;2023-03-08T14:39:51;3.70;;;1.10;;
76228;SDS011;65021;53.174;18.160;2023-03-08T14:45:25;4.20;;;1.10;;
76228;SDS011;65021;53.174;18.160;2023-03-08T14:50:58;4.60;;;1.40;;
76228;SDS011;65021;53.174;18.160;2023-03-08T14:55:54;5.80;;;1.90;;
76228;SDS011;65021;53.174;18.160;2023-03-08T14:58:23;3.00;;;1.00;;
76228;SDS011;65021;53.174;18.160;2023-03-08T15:00:53;4.50;;;1.40;;
76228;SDS011;65021;53.174;18.160;2023-03-08T15:03:21;4.60;;;1.70;;
76228;SDS011;65021;53.174;18.160;2023-03-08T15:05:48;4.90;;;1.50;;
76228;SDS011;65021;53.174;18.160;2023-03-08T15:08:15;3.20;;;1.10;;
76228;SDS011;65021;53.174;18.160;2023-03-08T15:10:42;3.30;;;1.50;;
76228;SDS011;65021;53.174;18.160;2023-03-08T15:13:28;5.30;;;2.00;;
76228;SDS011;65021;53.174;18.160;2023-03-08T15:15:54;6.40;;;1.70;;
76228;SDS011;65021;53.174;18.160;2023-03-08T15:18:20;5.90;;;1.60;;
76228;SDS011;65021;53.174;18.160;2023-03-08T15:20:47;3.30;;;0.90;;
76228;SDS011;65021;53.174;18.160;2023-03-08T15:23:26;6.00;;;2.30;;
76228;SDS011;65021;53.174;18.160;2023-03-08T15:25:55;3.90;;;1.60;;
76228;SDS011;65021;53.174;18.160;2023-03-08T15:28:22;4.90;;;2.00;;
76228;SDS011;65021;53.174;18.160;2023-03-08T15:30:50;6.30;;;2.40;;
76228;SDS011;65021;53.174;18.160;2023-03-08T15:33:19;4.50;;;1.50;;
76228;SDS011;65021;53.174;18.160;2023-03-08T15:35:47;7.50;;;1.80;;
76228;SDS011;65021;53.174;18.160;2023-03-08T15:38:15;5.40;;;2.10;;
76228;SDS011;65021;53.174;18.160;2023-03-08T15:40:43;5.00;;;1.70;;
76228;SDS011;65021;53.174;18.160;2023-03-08T15:43:10;4.10;;;1.60;;
76228;SDS011;65021;53.174;18.160;2023-03-08T15:45:36;5.50;;;2.10;;
76228;SDS011;65021;53.174;18.160;2023-03-08T15:48:04;6.10;;;1.70;;
76228;SDS011;65021;53.174;18.160;2023-03-08T15:52:59;5.80;;;2.10;;
76228;SDS011;65021;53.174;18.160;2023-03-08T15:55:27;5.80;;;2.50;;
76228;SDS011;65021;53.174;18.160;2023-03-08T15:57:55;4.60;;;2.10;;
76228;SDS011;65021;53.174;18.160;2023-03-08T16:00:23;5.60;;;2.10;;
76228;SDS011;65021;53.174;18.160;2023-03-08T16:02:50;3.80;;;1.50;;
76228;SDS011;65021;53.174;18.160;2023-03-08T16:05:19;5.10;;;1.60;;
76228;SDS011;65021;53.174;18.160;2023-03-08T16:07:52;3.60;;;1.40;;
76228;SDS011;65021;53.174;18.160;2023-03-08T16:10:19;4.00;;;1.10;;
76228;SDS011;65021;53.174;18.160;2023-03-08T16:12:46;8.10;;;2.50;;
76228;SDS011;65021;53.174;18.160;2023-03-08T16:15:13;8.50;;;3.00;;
76228;SDS011;65021;53.174;18.160;2023-03-08T16:17:40;7.30;;;2.30;;
76228;SDS011;65021;53.174;18.160;2023-03-08T16:20:06;7.40;;;2.50;;
76228;SDS011;65021;53.174;18.160;2023-03-08T16:22:33;5.90;;;2.30;;
76228;SDS011;65021;53.174;18.160;2023-03-08T16:25:00;5.40;;;2.50;;
76228;SDS011;65021;53.174;18.160;2023-03-08T16:27:30;7.20;;;2.90;;
76228;SDS011;65021;53.174;18.160;2023-03-08T16:29:58;6.90;;;2.60;;
76228;SDS011;65021;53.174;18.160;2023-03-08T16:32:26;6.20;;;2.30;;
76228;SDS011;65021;53.174;18.160;2023-03-08T16:34:57;6.40;;;2.00;;
76228;SDS011;65021;53.174;18.160;2023-03-08T16:37:24;5.50;;;1.90;;
76228;SDS011;65021;53.174;18.160;2023-03-08T16:39:52;4.80;;;2.00;;
76228;SDS011;65021;53.174;18.160;2023-03-08T16:42:20;5.90;;;2.50;;
76228;SDS011;65021;53.174;18.160;2023-03-08T16:44:48;9.00;;;2.90;;
76228;SDS011;65021;53.174;18.160;2023-03-08T16:47:17;8.80;;;2.80;;
76228;SDS011;65021;53.174;18.160;2023-03-08T16:49:44;8.60;;;2.60;;
76228;SDS011;65021;53.174;18.160;2023-03-08T16:52:12;13.40;;;4.20;;
76228;SDS011;65021;53.174;18.160;2023-03-08T16:54:39;12.90;;;3.40;;
76228;SDS011;65021;53.174;18.160;2023-03-08T16:57:06;10.60;;;3.20;;
76228;SDS011;65021;53.174;18.160;2023-03-08T16:59:37;10.20;;;3.60;;
76228;SDS011;65021;53.174;18.160;2023-03-08T17:02:05;9.80;;;3.50;;
76228;SDS011;65021;53.174;18.160;2023-03-08T17:04:34;12.80;;;3.60;;
76228;SDS011;65021;53.174;18.160;2023-03-08T17:07:01;9.10;;;3.10;;